Time;durP1;ratioP1;P1;durP2;ratioP2;P2;SDS_P1;SDS_P2;PMS_P1;PMS_P2;Temp;Humidity;BMP_temperature;BMP_pressure;BME280_temperature;BME280_humidity;BME280_pressure;Samples;Min_cycle;Max_cycle;Signal;HPM_P1;HPM_P2
2023/05/16 00:00:27;;;;;;;37.70;24.97;;;10.50;99.90;;;;;;454749;254;28357;-81
2023/05/16 00:02:28;;;;;;;32.00;23.03;;;10.40;99.90;;;;;;471209;248;28194;-81
2023/05/16 00:04:31;;;;;;;29.10;20.93;;;10.40;99.90;;;;;;471188;251;28042;-82
2023/05/16 00:06:31;;;;;;;41.93;24.20;;;10.40;99.90;;;;;;471133;252;28006;-81
2023/05/16 00:08:32;;;;;;;31.60;21.30;;;10.40;99.90;;;;;;477290;243;28002;-81
2023/05/16 00:10:35;;;;;;;30.90;20.20;;;;;;;;;;491213;243;28037;-84
2023/05/16 00:12:36;;;;;;;33.83;20.53;;;10.30;99.90;;;;;;491175;243;27151;-81
2023/05/16 00:14:37;;;;;;;26.33;20.00;;;10.40;99.90;;;;;;491197;243;28148;-83
2023/05/16 00:16:40;;;;;;;34.73;21.57;;;10.30;99.90;;;;;;497046;240;28052;-80
2023/05/16 00:18:39;;;;;;;30.03;19.57;;;10.30;99.90;;;;;;490187;243;27828;-80
2023/05/16 00:20:41;;;;;;;32.10;20.17;;;10.30;99.90;;;;;;490117;237;28033;-80
2023/05/16 00:22:42;;;;;;;40.67;24.20;;;10.30;99.90;;;;;;477994;249;28409;-81
2023/05/16 00:26:53;;;;;;;41.07;26.03;;;10.30;99.90;;;;;;472867;243;28092;-81
2023/05/16 00:28:55;;;;;;;33.03;22.80;;;10.20;99.90;;;;;;464048;257;28075;-84
2023/05/16 00:30:56;;;;;;;40.00;24.87;;;10.20;99.90;;;;;;456231;258;28229;-81
2023/05/16 00:32:57;;;;;;;34.70;22.10;;;10.20;99.90;;;;;;465412;253;28174;-82
2023/05/16 00:34:58;;;;;;;35.10;22.77;;;10.20;99.90;;;;;;463991;253;28084;-82
2023/05/16 00:37:00;;;;;;;29.27;21.03;;;10.30;99.90;;;;;;489597;241;27830;-81
2023/05/16 00:39:01;;;;;;;33.33;22.40;;;10.30;99.90;;;;;;486122;245;27996;-81
2023/05/16 00:41:03;;;;;;;34.07;21.87;;;10.20;99.90;;;;;;485654;244;28174;-82
2023/05/16 00:43:03;;;;;;;29.73;20.43;;;10.20;99.90;;;;;;494503;241;28033;-81
2023/05/16 00:45:05;;;;;;;27.23;19.17;;;10.10;99.90;;;;;;486067;245;28027;-82
2023/05/16 00:47:07;;;;;;;29.47;21.90;;;10.20;99.90;;;;;;485635;245;28052;-81
2023/05/16 00:49:07;;;;;;;36.00;23.20;;;10.20;99.90;;;;;;494487;241;27975;-81
2023/05/16 00:51:08;;;;;;;26.70;18.30;;;10.30;99.90;;;;;;486082;245;27977;-82
2023/05/16 00:53:10;;;;;;;28.57;20.10;;;10.20;99.90;;;;;;485695;244;28077;-83
2023/05/16 00:55:11;;;;;;;28.63;19.13;;;10.30;99.90;;;;;;494475;241;27840;-81
2023/05/16 00:57:12;;;;;;;31.00;22.00;;;10.30;99.90;;;;;;486091;245;27852;-80
2023/05/16 00:59:14;;;;;;;36.70;23.57;;;10.30;99.90;;;;;;485718;244;28325;-82
2023/05/16 01:01:15;;;;;;;34.40;20.53;;;10.20;99.90;;;;;;494513;241;28005;-82
2023/05/16 01:03:16;;;;;;;29.73;20.80;;;10.20;99.90;;;;;;486100;245;28150;-81
2023/05/16 01:05:17;;;;;;;32.23;21.10;;;10.10;99.90;;;;;;485645;245;27932;-80
2023/05/16 01:07:19;;;;;;;29.03;20.50;;;10.10;99.90;;;;;;494560;241;27896;-81
2023/05/16 01:09:20;;;;;;;36.03;22.80;;;10.20;99.90;;;;;;486108;245;27906;-79
2023/05/16 01:11:22;;;;;;;33.27;22.13;;;10.20;99.90;;;;;;485698;245;27944;-81
2023/05/16 01:13:22;;;;;;;35.10;21.93;;;10.20;99.90;;;;;;494466;241;28088;-80
2023/05/16 01:15:24;;;;;;;33.80;20.83;;;10.20;99.90;;;;;;494460;241;27832;-82
2023/05/16 01:17:25;;;;;;;29.17;20.97;;;10.20;99.90;;;;;;494498;241;27852;-82
2023/05/16 01:19:26;;;;;;;26.07;18.33;;;10.20;99.90;;;;;;494522;240;28112;-80
2023/05/16 01:21:27;;;;;;;31.37;21.33;;;10.30;99.90;;;;;;494519;239;28146;-79
2023/05/16 01:23:29;;;;;;;29.93;19.87;;;10.30;99.90;;;;;;494506;241;27931;-83
2023/05/16 01:25:30;;;;;;;32.23;20.83;;;10.30;99.90;;;;;;494490;241;27730;-81
2023/05/16 01:27:31;;;;;;;30.07;19.70;;;10.30;99.90;;;;;;494511;241;27954;-81
2023/05/16 01:29:32;;;;;;;29.50;20.07;;;10.30;99.90;;;;;;494521;241;27851;-80
2023/05/16 01:31:34;;;;;;;25.53;17.73;;;10.30;99.90;;;;;;494545;241;27860;-80
2023/05/16 01:33:35;;;;;;;27.27;18.70;;;10.40;99.90;;;;;;494556;241;27947;-82
2023/05/16 01:35:36;;;;;;;25.30;18.40;;;10.40;99.90;;;;;;494459;241;28026;-81
2023/05/16 01:37:37;;;;;;;29.53;19.77;;;10.40;99.90;;;;;;494543;241;27924;-81
2023/05/16 01:39:39;;;;;;;28.27;18.50;;;10.40;99.90;;;;;;494549;241;27955;-82
2023/05/16 01:41:41;;;;;;;30.90;20.33;;;10.40;99.90;;;;;;494520;238;28157;-83
2023/05/16 01:43:41;;;;;;;26.57;17.80;;;10.40;99.90;;;;;;494530;241;27850;-81
2023/05/16 01:45:43;;;;;;;30.80;19.63;;;10.40;99.90;;;;;;494535;241;27948;-81
2023/05/16 01:47:44;;;;;;;27.47;19.97;;;10.40;99.90;;;;;;494536;241;27972;-81
2023/05/16 01:49:45;;;;;;;28.00;18.23;;;10.40;99.90;;;;;;494532;241;28101;-84
2023/05/16 01:51:46;;;;;;;25.10;17.27;;;10.40;99.90;;;;;;494551;241;27961;-81
2023/05/16 01:53:47;;;;;;;31.70;18.40;;;10.40;99.90;;;;;;494538;241;28076;-81
2023/05/16 01:55:49;;;;;;;24.07;17.30;;;10.40;99.90;;;;;;494557;241;28010;-82
2023/05/16 01:57:50;;;;;;;28.83;19.90;;;10.40;99.90;;;;;;494510;241;27927;-82
2023/05/16 01:59:51;;;;;;;33.13;19.70;;;10.40;99.90;;;;;;494527;241;27827;-81
2023/05/16 02:01:53;;;;;;;31.03;19.77;;;10.40;99.90;;;;;;494580;241;28068;-83
2023/05/16 02:03:54;;;;;;;24.10;16.20;;;10.40;99.90;;;;;;494547;239;27943;-80
2023/05/16 02:05:55;;;;;;;27.30;17.80;;;10.40;99.90;;;;;;494549;241;27957;-80
2023/05/16 02:07:56;;;;;;;27.73;18.57;;;10.50;99.90;;;;;;494579;241;28060;-80
2023/05/16 02:09:58;;;;;;;25.63;16.80;;;10.40;99.90;;;;;;494491;241;28084;-81
2023/05/16 02:11:59;;;;;;;25.33;16.73;;;10.40;99.90;;;;;;494523;241;28016;-80
2023/05/16 02:16:17;;;;;;;28.43;18.63;;;10.40;99.90;;;;;;466759;254;28106;-80
2023/05/16 02:18:18;;;;;;;30.30;17.73;;;10.40;99.90;;;;;;476475;246;27754;-80
2023/05/16 02:20:19;;;;;;;25.70;17.37;;;10.30;99.90;;;;;;476510;249;28196;-82
2023/05/16 02:22:21;;;;;;;30.33;17.30;;;10.30;99.90;;;;;;476477;249;27992;-80
2023/05/16 02:24:22;;;;;;;30.17;19.43;;;10.30;99.90;;;;;;476495;249;27990;-79
2023/05/16 02:26:23;;;;;;;30.00;17.70;;;10.30;99.90;;;;;;476464;250;28163;-79
2023/05/16 02:28:24;;;;;;;24.60;16.00;;;10.30;99.90;;;;;;476487;249;28614;-80
2023/05/16 02:30:26;;;;;;;24.93;16.23;;;10.30;99.90;;;;;;476452;249;27903;-82
2023/05/16 02:32:27;;;;;;;28.80;16.90;;;10.30;99.90;;;;;;476514;249;28030;-82
2023/05/16 02:34:28;;;;;;;28.53;18.73;;;10.30;99.90;;;;;;485084;238;28085;-81
2023/05/16 02:36:29;;;;;;;22.03;16.93;;;10.20;99.90;;;;;;488467;244;27822;-84
2023/05/16 02:38:31;;;;;;;38.53;19.13;;;10.30;99.90;;;;;;488567;244;27841;-80
2023/05/16 02:40:32;;;;;;;28.00;18.80;;;10.30;99.90;;;;;;488585;244;28191;-83
2023/05/16 02:42:33;;;;;;;24.07;14.40;;;10.30;99.90;;;;;;488518;243;28045;-81
2023/05/16 02:44:34;;;;;;;25.27;15.90;;;10.30;99.90;;;;;;488467;244;28078;-84
2023/05/16 02:46:36;;;;;;;28.87;16.50;;;10.30;99.90;;;;;;477799;239;28006;-82
2023/05/16 02:48:37;;;;;;;29.07;17.87;;;10.30;99.90;;;;;;472391;249;28222;-79
2023/05/16 02:50:39;;;;;;;23.67;16.50;;;10.30;99.90;;;;;;464215;252;28136;-81
2023/05/16 02:52:40;;;;;;;22.50;14.70;;;10.30;99.90;;;;;;456243;257;28086;-83
2023/05/16 02:54:41;;;;;;;25.13;16.17;;;10.30;99.90;;;;;;464250;249;28220;-81
2023/05/16 02:56:43;;;;;;;20.50;15.20;;;10.30;99.90;;;;;;456317;256;28866;-80
2023/05/16 03:01:00;;;;;;;23.33;15.27;;;10.30;99.90;;;;;;488264;236;28218;-81
2023/05/16 03:03:02;;;;;;;19.63;13.90;;;10.30;99.90;;;;;;485468;242;28083;-83
2023/05/16 03:05:04;;;;;;;23.83;16.03;;;10.30;99.90;;;;;;485445;245;28096;-81
2023/05/16 03:07:04;;;;;;;27.33;14.83;;;10.30;99.90;;;;;;485445;246;28204;-82
2023/05/16 03:09:06;;;;;;;22.40;13.73;;;10.30;99.90;;;;;;485443;246;27938;-80
2023/05/16 03:11:07;;;;;;;21.90;14.23;;;10.30;99.90;;;;;;485218;243;28196;-78
2023/05/16 03:13:08;;;;;;;17.70;12.70;;;10.30;99.90;;;;;;491465;236;28035;-79
2023/05/16 03:15:09;;;;;;;22.60;15.57;;;10.30;99.90;;;;;;493000;242;28149;-81
2023/05/16 03:17:10;;;;;;;22.97;15.40;;;10.30;99.90;;;;;;492998;242;28093;-83
2023/05/16 03:19:12;;;;;;;23.37;14.33;;;10.30;99.90;;;;;;492995;242;28043;-82
2023/05/16 03:21:13;;;;;;;27.30;15.63;;;10.30;99.90;;;;;;492960;242;28178;-81
2023/05/16 03:23:14;;;;;;;21.73;14.13;;;10.20;99.90;;;;;;492975;242;28155;-82
2023/05/16 03:25:15;;;;;;;24.87;15.87;;;10.20;99.90;;;;;;492932;242;28233;-81
2023/05/16 03:27:17;;;;;;;19.13;14.20;;;10.20;99.90;;;;;;493022;242;27962;-80
2023/05/16 03:29:18;;;;;;;21.37;14.27;;;10.20;99.90;;;;;;497238;236;27929;-81
2023/05/16 03:31:19;;;;;;;21.10;14.00;;;10.10;99.90;;;;;;498277;237;28083;-80
2023/05/16 03:33:20;;;;;;;20.27;12.93;;;10.10;99.90;;;;;;497266;240;28009;-80
2023/05/16 03:35:23;;;;;;;17.03;11.80;;;10.20;99.90;;;;;;493080;242;28191;-82
2023/05/16 03:37:23;;;;;;;25.87;14.77;;;10.20;99.90;;;;;;493066;242;28079;-80
2023/05/16 03:39:24;;;;;;;20.97;13.97;;;10.10;99.90;;;;;;484184;241;28322;-80
2023/05/16 03:41:26;;;;;;;23.23;14.70;;;10.20;99.90;;;;;;480698;247;27998;-81
2023/05/16 03:43:27;;;;;;;18.80;12.57;;;10.20;99.90;;;;;;493521;233;28128;-83
2023/05/16 03:45:28;;;;;;;22.03;14.20;;;10.20;99.90;;;;;;490675;243;28022;-80
2023/05/16 03:47:30;;;;;;;21.90;12.87;;;10.20;99.90;;;;;;495391;241;28047;-83
2023/05/16 03:49:31;;;;;;;17.70;12.43;;;10.10;99.90;;;;;;495288;238;28147;-80
2023/05/16 03:51:32;;;;;;;22.83;14.70;;;10.10;99.90;;;;;;490661;243;28254;-80
2023/05/16 03:53:33;;;;;;;21.70;13.90;;;10.10;99.90;;;;;;495418;238;28288;-80
2023/05/16 03:55:34;;;;;;;20.40;13.87;;;10.10;99.90;;;;;;495276;238;28122;-80
2023/05/16 03:57:36;;;;;;;19.87;13.73;;;10.10;99.90;;;;;;481795;238;28125;-82
2023/05/16 03:59:37;;;;;;;19.13;12.33;;;10.10;99.90;;;;;;476928;249;28070;-79
2023/05/16 04:01:38;;;;;;;23.67;13.53;;;10.10;99.90;;;;;;483772;239;27989;-81
2023/05/16 04:03:39;;;;;;;17.47;12.30;;;10.10;99.90;;;;;;475564;251;28034;-81
2023/05/16 04:05:41;;;;;;;17.90;12.30;;;10.20;99.90;;;;;;488835;244;28165;-81
2023/05/16 04:07:42;;;;;;;20.20;12.87;;;10.10;99.90;;;;;;488832;243;28254;-81
2023/05/16 04:09:43;;;;;;;18.03;12.37;;;10.10;99.90;;;;;;488757;244;28425;-80
2023/05/16 04:11:45;;;;;;;18.20;11.70;;;10.10;99.90;;;;;;488784;243;27956;-82
2023/05/16 04:13:46;;;;;;;21.17;12.00;;;10.10;99.90;;;;;;488815;244;28144;-82
2023/05/16 04:15:47;;;;;;;18.00;12.10;;;10.20;99.90;;;;;;488769;244;28209;-82
2023/05/16 04:17:48;;;;;;;20.50;11.90;;;10.20;99.90;;;;;;488836;244;28076;-80
2023/05/16 04:19:49;;;;;;;21.40;13.47;;;10.20;99.90;;;;;;488808;243;27824;-85
2023/05/16 04:21:51;;;;;;;19.77;13.80;;;10.20;99.90;;;;;;488813;243;27964;-81
2023/05/16 04:23:52;;;;;;;25.03;11.30;;;10.10;99.90;;;;;;482073;247;28169;-78
2023/05/16 04:25:55;;;;;;;17.27;11.97;;;10.10;99.90;;;;;;475497;251;27963;-81
2023/05/16 04:27:54;;;;;;;18.90;12.37;;;10.10;99.90;;;;;;488732;244;27967;-83
2023/05/16 04:29:56;;;;;;;22.50;12.10;;;10.10;99.90;;;;;;482619;240;28214;-82
2023/05/16 04:31:57;;;;;;;18.13;11.50;;;10.20;99.90;;;;;;482097;247;28154;-80
2023/05/16 04:33:58;;;;;;;21.70;12.67;;;10.20;99.90;;;;;;482057;242;27955;-80
2023/05/16 04:36:00;;;;;;;22.80;13.00;;;10.20;99.90;;;;;;482005;247;27983;-80
2023/05/16 04:38:01;;;;;;;15.37;11.30;;;10.20;99.90;;;;;;482029;244;28146;-79
2023/05/16 04:40:02;;;;;;;19.13;12.17;;;10.10;99.90;;;;;;482058;247;27853;-80
2023/05/16 04:42:03;;;;;;;24.23;11.93;;;10.10;99.90;;;;;;482059;242;27899;-81
2023/05/16 04:44:05;;;;;;;20.17;12.30;;;10.10;99.90;;;;;;482090;247;27976;-80
2023/05/16 04:46:09;;;;;;;19.60;11.63;;;10.10;99.90;;;;;;482065;247;27994;-81
2023/05/16 04:48:11;;;;;;;21.93;12.90;;;10.10;99.90;;;;;;482057;243;27893;-82
2023/05/16 04:50:11;;;;;;;17.17;10.93;;;10.00;99.90;;;;;;482039;241;27896;-81
2023/05/16 04:52:12;;;;;;;18.57;10.83;;;10.00;99.90;;;;;;482017;247;28119;-82
2023/05/16 04:54:14;;;;;;;16.07;9.87;;;10.00;99.90;;;;;;482040;247;27738;-79
2023/05/16 04:56:15;;;;;;;16.23;9.10;;;10.10;99.90;;;;;;482048;242;28040;-80
2023/05/16 04:58:16;;;;;;;18.30;10.20;;;10.10;99.90;;;;;;482085;242;28006;-80
2023/05/16 05:00:17;;;;;;;13.77;9.00;;;10.10;99.90;;;;;;482029;247;27878;-80
2023/05/16 05:02:19;;;;;;;13.00;8.80;;;10.20;99.90;;;;;;482047;247;28311;-80
2023/05/16 05:04:21;;;;;;;11.47;7.40;;;10.30;99.90;;;;;;482028;247;28082;-79
2023/05/16 05:06:21;;;;;;;11.80;7.33;;;10.30;99.90;;;;;;482027;247;28004;-80
2023/05/16 05:08:22;;;;;;;11.83;7.37;;;10.20;99.90;;;;;;482054;243;27779;-81
2023/05/16 05:10:24;;;;;;;14.70;8.53;;;10.20;99.90;;;;;;482088;247;27923;-79
2023/05/16 05:12:26;;;;;;;11.50;6.67;;;10.20;99.90;;;;;;482037;247;28772;-80
2023/05/16 05:14:26;;;;;;;9.10;5.77;;;10.20;99.90;;;;;;481972;247;27967;-79
2023/05/16 05:16:27;;;;;;;7.40;5.97;;;10.20;99.90;;;;;;482070;247;27954;-79
2023/05/16 05:18:29;;;;;;;7.13;5.37;;;10.20;99.90;;;;;;482060;247;28029;-80
2023/05/16 05:20:30;;;;;;;6.03;5.13;;;10.30;99.90;;;;;;482085;247;28013;-80
2023/05/16 05:24:41;;;;;;;6.70;4.80;;;10.20;99.90;;;;;;485748;236;28125;-79
2023/05/16 05:26:43;;;;;;;8.13;4.30;;;10.20;99.90;;;;;;470914;249;27974;-78
2023/05/16 05:28:44;;;;;;;5.73;4.43;;;10.20;99.90;;;;;;482655;240;28092;-79
2023/05/16 05:30:47;;;;;;;6.00;4.57;;;10.10;99.90;;;;;;478460;247;28084;-79
2023/05/16 05:32:46;;;;;;;5.60;4.10;;;10.20;99.90;;;;;;470683;251;28187;-80
2023/05/16 05:34:48;;;;;;;3.70;3.07;;;10.30;99.90;;;;;;479581;246;28032;-83
2023/05/16 05:36:49;;;;;;;6.30;3.50;;;10.30;99.90;;;;;;472902;251;28046;-81
2023/05/16 05:38:50;;;;;;;4.40;3.47;;;10.30;99.90;;;;;;472927;250;27947;-80
2023/05/16 05:40:51;;;;;;;3.13;2.80;;;10.30;99.90;;;;;;472959;250;28020;-79
2023/05/16 05:42:53;;;;;;;5.53;2.93;;;10.30;99.90;;;;;;472936;247;28071;-80
2023/05/16 05:49:08;;;;;;;2.60;2.40;;;10.40;99.90;;;;;;488351;242;27887;-82
2023/05/16 05:51:09;;;;;;;3.70;2.40;;;10.40;99.90;;;;;;488333;243;28093;-82
2023/05/16 05:53:10;;;;;;;4.10;2.63;;;10.40;99.90;;;;;;470200;253;28179;-82
2023/05/16 05:55:11;;;;;;;2.17;1.97;;;10.50;99.90;;;;;;478684;241;28152;-80
2023/05/16 05:57:13;;;;;;;2.33;2.13;;;10.50;99.90;;;;;;470245;251;28232;-80
2023/05/16 05:59:14;;;;;;;2.30;1.73;;;10.60;99.90;;;;;;477095;235;28104;-82
2023/05/16 06:01:15;;;;;;;2.33;1.87;;;10.40;99.90;;;;;;489578;244;28100;-82
2023/05/16 06:03:16;;;;;;;2.63;2.30;;;10.50;99.90;;;;;;485377;246;28085;-82
2023/05/16 06:05:18;;;;;;;2.90;2.13;;;10.50;99.90;;;;;;488038;244;27936;-82
2023/05/16 06:09:29;;;;;;;1.90;1.80;;;10.40;99.90;;;;;;482248;245;28105;-82
2023/05/16 06:11:32;;;;;;;2.30;2.10;;;10.30;99.90;;;;;;471819;240;28197;-81
2023/05/16 06:13:33;;;;;;;3.83;2.80;;;10.20;99.90;;;;;;468314;255;28172;-80
2023/05/16 06:15:35;;;;;;;2.40;2.20;;;;;;;;;;468298;250;27971;-80
2023/05/16 06:19:54;;;;;;;4.50;2.13;;;10.20;99.90;;;;;;478544;244;28244;-81
2023/05/16 06:21:55;;;;;;;2.00;1.90;;;10.30;99.90;;;;;;487508;242;27862;-80
2023/05/16 06:23:56;;;;;;;2.17;2.07;;;10.40;99.90;;;;;;487501;242;28181;-80
2023/05/16 06:25:57;;;;;;;2.60;2.40;;;10.30;99.90;;;;;;487496;242;28195;-80
2023/05/16 06:27:59;;;;;;;2.37;2.27;;;10.30;99.90;;;;;;487527;241;28022;-81
2023/05/16 06:30:00;;;;;;;2.23;2.03;;;10.20;99.90;;;;;;484569;237;28261;-80
2023/05/16 06:32:01;;;;;;;2.40;2.30;;;10.30;99.90;;;;;;476722;237;28074;-79
2023/05/16 06:34:03;;;;;;;2.13;2.03;;;10.30;99.90;;;;;;463754;255;28000;-80
2023/05/16 06:36:04;;;;;;;2.20;2.10;;;10.20;99.90;;;;;;474345;248;28108;-81
2023/05/16 06:38:05;;;;;;;2.87;2.60;;;10.20;99.90;;;;;;474363;250;28110;-81
2023/05/16 06:40:06;;;;;;;2.93;2.63;;;10.10;99.90;;;;;;474369;250;28091;-80
2023/05/16 06:42:07;;;;;;;3.20;2.90;;;10.20;99.90;;;;;;479560;243;27981;-82
2023/05/16 06:44:09;;;;;;;2.43;2.23;;;10.20;99.90;;;;;;477567;248;27952;-81
2023/05/16 06:46:10;;;;;;;2.27;2.13;;;10.10;99.90;;;;;;486327;245;28084;-81
2023/05/16 06:48:11;;;;;;;4.00;2.83;;;10.10;99.90;;;;;;480989;248;27928;-80
2023/05/16 06:50:12;;;;;;;2.10;2.00;;;10.10;99.90;;;;;;477604;248;28086;-82
2023/05/16 06:52:14;;;;;;;2.63;2.43;;;10.10;99.90;;;;;;484046;235;28127;-81
2023/05/16 06:56:30;;;;;;;3.10;2.57;;;10.20;99.90;;;;;;480529;245;28008;-81
2023/05/16 06:58:32;;;;;;;4.60;2.20;;;10.20;99.90;;;;;;481476;246;27831;-82
2023/05/16 07:00:33;;;;;;;2.20;2.00;;;10.20;99.90;;;;;;488650;242;29336;-83
2023/05/16 07:02:34;;;;;;;2.40;2.20;;;10.20;99.90;;;;;;474794;249;28328;-80
2023/05/16 07:04:36;;;;;;;2.30;2.10;;;10.10;99.90;;;;;;468757;254;27960;-83
2023/05/16 07:06:37;;;;;;;3.73;2.20;;;10.10;99.90;;;;;;468741;253;27965;-80
2023/05/16 07:08:38;;;;;;;2.00;1.90;;;10.20;99.90;;;;;;472946;244;27962;-81
2023/05/16 07:10:39;;;;;;;2.57;2.37;;;10.10;99.90;;;;;;472926;244;27868;-80
2023/05/16 07:12:40;;;;;;;2.40;2.20;;;10.10;99.90;;;;;;472924;248;27897;-79
2023/05/16 07:14:42;;;;;;;2.60;2.00;;;10.00;99.90;;;;;;479517;239;27936;-84
2023/05/16 07:16:43;;;;;;;2.10;2.00;;;10.00;99.90;;;;;;489707;239;28038;-85
2023/05/16 07:18:44;;;;;;;2.13;2.03;;;9.90;99.90;;;;;;495919;237;27806;-81
2023/05/16 07:20:46;;;;;;;2.17;1.97;;;9.90;99.90;;;;;;495943;237;27943;-82
2023/05/16 07:22:47;;;;;;;2.17;2.00;;;9.90;99.90;;;;;;495951;237;27594;-81
2023/05/16 07:24:48;;;;;;;2.10;2.00;;;9.90;99.90;;;;;;495966;237;27823;-81
2023/05/16 07:26:49;;;;;;;2.20;2.00;;;9.80;99.90;;;;;;495958;239;27860;-80
2023/05/16 07:28:50;;;;;;;2.63;1.90;;;9.90;99.90;;;;;;492621;237;27978;-81
2023/05/16 07:30:52;;;;;;;1.90;1.80;;;9.90;99.90;;;;;;490324;243;27891;-80
2023/05/16 07:32:53;;;;;;;2.00;1.90;;;9.80;99.90;;;;;;490315;242;28014;-83
2023/05/16 07:34:54;;;;;;;2.00;1.90;;;9.80;99.90;;;;;;490292;242;27814;-82
2023/05/16 07:36:55;;;;;;;1.77;1.60;;;9.80;99.90;;;;;;485830;236;28194;-81
2023/05/16 07:38:57;;;;;;;1.80;1.70;;;9.80;99.90;;;;;;482393;241;28528;-86
2023/05/16 07:40:58;;;;;;;1.73;1.63;;;9.80;99.90;;;;;;482422;243;27808;-82
2023/05/16 07:43:00;;;;;;;1.50;1.40;;;9.90;99.90;;;;;;482416;242;28159;-82
2023/05/16 07:45:01;;;;;;;2.93;1.80;;;10.00;99.90;;;;;;482440;242;28179;-81
2023/05/16 07:49:09;;;;;;;1.50;1.40;;;10.20;99.90;;;;;;486213;238;29467;-80
2023/05/16 07:51:10;;;;;;;1.70;1.60;;;10.10;99.90;;;;;;494225;237;27963;-81
2023/05/16 07:53:11;;;;;;;1.57;1.47;;;10.10;99.90;;;;;;468918;251;28007;-81
2023/05/16 07:57:23;;;;;;;1.47;1.47;;;10.20;99.90;;;;;;486152;235;28008;-81
2023/05/16 07:59:24;;;;;;;1.60;1.50;;;10.20;99.90;;;;;;470129;249;27993;-81
2023/05/16 08:01:25;;;;;;;1.60;1.50;;;10.10;99.90;;;;;;485019;245;27944;-79
2023/05/16 08:03:27;;;;;;;1.50;1.40;;;10.10;99.90;;;;;;484984;245;28100;-83
2023/05/16 08:05:28;;;;;;;1.97;1.87;;;10.10;99.90;;;;;;485008;246;27932;-78
2023/05/16 08:07:29;;;;;;;1.97;1.87;;;9.80;99.90;;;;;;484541;234;28141;-79
2023/05/16 08:11:44;;;;;;;1.80;1.70;;;9.80;99.90;;;;;;479456;236;28298;-81
2023/05/16 08:13:42;;;;;;;1.53;1.43;;;10.00;99.90;;;;;;485361;235;28092;-79
2023/05/16 08:15:43;;;;;;;2.30;2.13;;;10.00;99.90;;;;;;482573;243;28070;-81
2023/05/16 08:17:45;;;;;;;1.60;1.50;;;10.00;99.90;;;;;;479823;249;28134;-79
2023/05/16 08:19:46;;;;;;;1.80;1.70;;;9.90;99.90;;;;;;479824;244;28219;-80
2023/05/16 08:21:47;;;;;;;1.60;1.50;;;9.90;99.90;;;;;;479834;249;28117;-80
2023/05/16 08:23:48;;;;;;;3.03;1.53;;;9.90;99.90;;;;;;479826;244;28405;-80
2023/05/16 08:25:50;;;;;;;1.80;1.70;;;9.90;99.90;;;;;;479854;244;27993;-81
2023/05/16 08:32:34;;;;;;;1.80;1.50;;;10.00;99.90;;;;;;478996;249;27998;-80
2023/05/16 08:34:35;;;;;;;1.50;1.40;;;9.80;99.90;;;;;;474073;249;28063;-78
2023/05/16 08:36:37;;;;;;;1.50;1.40;;;9.80;99.90;;;;;;481786;247;28013;-81
2023/05/16 08:38:38;;;;;;;1.70;1.60;;;9.90;99.90;;;;;;481762;247;28536;-82
2023/05/16 08:40:39;;;;;;;1.67;1.57;;;10.00;99.90;;;;;;481815;247;28647;-78
2023/05/16 08:42:40;;;;;;;1.83;1.60;;;10.10;99.90;;;;;;481920;247;27956;-81
2023/05/16 08:44:42;;;;;;;1.93;1.73;;;10.10;99.90;;;;;;481757;246;28051;-78
2023/05/16 08:55:22;;;;;;;1.40;1.30;;;10.10;99.90;;;;;;469796;254;28264;-83
2023/05/16 08:57:24;;;;;;;1.43;1.33;;;10.20;99.90;;;;;;477748;249;28057;-83
2023/05/16 08:59:27;;;;;;;1.43;1.30;;;10.30;99.90;;;;;;469669;248;28100;-84
2023/05/16 09:01:28;;;;;;;1.50;1.40;;;10.30;99.90;;;;;;475726;240;28237;-82
2023/05/16 09:03:29;;;;;;;2.90;1.53;;;10.10;99.90;;;;;;494496;240;28253;-78
2023/05/16 09:07:38;;;;;;;1.47;1.37;;;10.50;99.90;;;;;;493002;235;28146;-82
2023/05/16 09:09:40;;;;;;;3.20;1.40;;;10.30;99.90;;;;;;489998;235;28197;-83
2023/05/16 09:11:41;;;;;;;1.80;1.23;;;10.00;99.90;;;;;;490097;240;27944;-84
2023/05/16 09:13:43;;;;;;;1.40;1.30;;;10.20;99.90;;;;;;493735;235;28138;-84
2023/05/16 09:15:44;;;;;;;1.40;1.30;;;10.20;99.90;;;;;;494172;234;28288;-79
2023/05/16 09:17:45;;;;;;;2.10;1.30;;;10.30;99.90;;;;;;490546;240;29128;-79
2023/05/16 09:19:49;;;;;;;1.40;1.20;;;10.40;99.90;;;;;;473451;242;28230;-83
2023/05/16 09:24:00;;;;;;;1.50;1.27;;;10.20;99.90;;;;;;492223;235;28297;-83
2023/05/16 09:25:59;;;;;;;1.40;1.30;;;10.10;99.90;;;;;;489935;243;28226;-83
2023/05/16 09:28:00;;;;;;;1.37;1.27;;;9.60;99.90;;;;;;486940;242;28223;-82
2023/05/16 09:30:02;;;;;;;1.37;1.27;;;9.70;99.90;;;;;;489816;240;27978;-83
2023/05/16 09:32:03;;;;;;;3.70;1.40;;;9.70;99.90;;;;;;485804;240;27867;-80
2023/05/16 09:34:04;;;;;;;1.10;1.10;;;9.80;99.90;;;;;;491071;235;28003;-78
2023/05/16 09:36:05;;;;;;;1.60;1.50;;;10.10;99.90;;;;;;497751;235;28076;-79
2023/05/16 09:38:07;;;;;;;1.90;1.20;;;9.60;99.90;;;;;;488759;240;28091;-83
2023/05/16 09:40:09;;;;;;;1.73;1.30;;;10.00;99.90;;;;;;472589;252;28003;-82
2023/05/16 09:42:11;;;;;;;1.53;1.20;;;10.20;99.90;;;;;;474228;240;28033;-78
2023/05/16 09:46:22;;;;;;;1.40;1.30;;;10.50;99.90;;;;;;489562;235;28096;-80
2023/05/16 09:48:27;;;;;;;1.23;1.20;;;10.40;99.90;;;;;;487397;241;27986;-79
2023/05/16 09:56:54;;;;;;;2.50;1.70;;;10.20;99.90;;;;;;474961;251;28206;-84
2023/05/16 09:58:58;;;;;;;2.10;1.40;;;10.20;99.90;;;;;;475516;250;28161;-83
2023/05/16 10:01:01;;;;;;;3.00;1.70;;;10.10;99.90;;;;;;478032;248;28155;-83
2023/05/16 10:05:19;;;;;;;3.33;1.80;;;10.10;99.90;;;;;;479670;240;28112;-81
2023/05/16 10:07:20;;;;;;;3.00;2.23;;;9.90;99.90;;;;;;474783;243;28108;-82
2023/05/16 10:09:22;;;;;;;2.20;1.40;;;9.80;99.90;;;;;;482495;241;28069;-79
2023/05/16 10:11:23;;;;;;;2.10;1.83;;;9.80;99.90;;;;;;479082;240;28181;-82
2023/05/16 10:13:33;;;;;;;3.57;2.03;;;9.70;99.90;;;;;;478743;242;27815;-82
2023/05/16 10:17:51;;;;;;;4.30;2.00;;;9.50;99.90;;;;;;481497;233;28072;-83
2023/05/16 10:19:54;;;;;;;2.40;2.00;;;9.70;99.90;;;;;;471513;240;27948;-82
2023/05/16 10:21:57;;;;;;;3.10;1.80;;;9.70;99.90;;;;;;481236;244;27921;-83
2023/05/16 10:23:56;;;;;;;4.83;2.10;;;9.70;99.90;;;;;;476889;250;27912;-84
2023/05/16 10:25:57;;;;;;;5.50;2.23;;;9.70;99.90;;;;;;481214;244;27986;-82
2023/05/16 10:30:20;;;;;;;3.30;1.83;;;9.50;99.90;;;;;;478680;237;27861;-83
2023/05/16 10:34:31;;;;;;;2.73;1.87;;;9.60;99.90;;;;;;477933;247;27758;-86
2023/05/16 10:40:53;;;;;;;4.87;2.43;;;9.90;99.90;;;;;;490360;235;27975;-81
2023/05/16 10:42:54;;;;;;;4.80;2.60;;;9.70;99.90;;;;;;501889;236;27810;-80
2023/05/16 10:47:12;;;;;;;2.57;2.10;;;9.70;99.90;;;;;;492092;235;27855;-80
2023/05/16 10:49:13;;;;;;;2.73;2.00;;;9.70;99.90;;;;;;494013;240;27870;-78
2023/05/16 10:53:29;;;;;;;6.07;3.40;;;9.90;99.90;;;;;;486140;236;28199;-83
2023/05/16 10:55:30;;;;;;;3.80;2.57;;;9.80;99.90;;;;;;483068;247;28113;-82
2023/05/16 11:04:33;;;;;;;4.63;2.77;;;9.90;99.90;;;;;;472727;251;28260;-83
2023/05/16 11:08:42;;;;;;;4.47;3.13;;;9.70;99.90;;;;;;484950;241;28011;-83
2023/05/16 11:12:54;;;;;;;5.97;3.37;;;9.50;99.90;;;;;;496443;236;28003;-82
2023/05/16 11:17:05;;;;;;;5.83;3.20;;;9.50;99.90;;;;;;486779;240;29552;-79
2023/05/16 11:19:06;;;;;;;7.07;3.40;;;9.60;99.90;;;;;;490533;238;28210;-81
2023/05/16 11:21:08;;;;;;;6.60;3.30;;;9.50;99.90;;;;;;490003;243;27724;-83
2023/05/16 11:25:19;;;;;;;9.67;3.47;;;9.20;99.90;;;;;;494165;235;27795;-83
2023/05/16 11:38:06;;;;;;;8.00;3.47;;;9.70;99.90;;;;;;474645;233;29277;-83
2023/05/16 11:40:08;;;;;;;4.70;2.80;;;10.30;99.90;;;;;;472357;248;28218;-82
2023/05/16 11:42:09;;;;;;;6.90;2.73;;;10.20;99.90;;;;;;485067;240;28293;-80
2023/05/16 11:44:10;;;;;;;9.03;2.73;;;10.70;99.90;;;;;;485978;245;28617;-79
2023/05/16 11:46:11;;;;;;;5.47;2.57;;;10.80;99.90;;;;;;485909;242;28874;-81
2023/05/16 11:48:12;;;;;;;4.57;2.00;;;10.90;99.90;;;;;;485960;242;28937;-82
2023/05/16 11:50:14;;;;;;;11.37;2.40;;;10.90;99.90;;;;;;485971;245;28316;-80
2023/05/16 11:52:15;;;;;;;5.07;2.13;;;10.50;99.90;;;;;;486007;245;28414;-81
2023/05/16 11:54:16;;;;;;;7.30;2.30;;;10.00;99.90;;;;;;486004;245;28403;-81
2023/05/16 11:56:17;;;;;;;5.90;2.40;;;10.50;99.90;;;;;;485977;242;28269;-81
2023/05/16 11:58:19;;;;;;;8.43;2.80;;;10.50;99.90;;;;;;486022;245;28300;-82
2023/05/16 12:00:20;;;;;;;7.13;2.40;;;10.60;99.90;;;;;;485996;245;28380;-82
2023/05/16 12:02:21;;;;;;;7.17;2.10;;;10.60;99.90;;;;;;485976;245;28231;-84